Time;durP1;ratioP1;P1;durP2;ratioP2;P2;SDS_P1;SDS_P2;PMS_P1;PMS_P2;Temp;Humidity;BMP_temperature;BMP_pressure;BME280_temperature;BME280_humidity;BME280_pressure;Samples;Min_cycle;Max_cycle;Signal;HPM_P1;HPM_P2
2022/06/02 00:02:41;;;;;;;6.72;4.82;;;14.40;95.10;;;;;;5018619;28;20044;-83
2022/06/02 00:05:51;;;;;;;7.18;4.55;;;14.30;95.10;;;;;;5035651;28;20088;-83
2022/06/02 00:08:41;;;;;;;7.72;4.70;;;14.30;95.10;;;;;;4986206;28;20030;-83
2022/06/02 00:11:29;;;;;;;6.63;4.85;;;14.20;95.20;;;;;;4978503;28;20157;-83
2022/06/02 00:14:06;;;;;;;7.32;4.55;;;14.20;95.40;;;;;;5007813;28;20026;-83
2022/06/02 00:16:50;;;;;;;6.22;5.10;;;14.20;95.50;;;;;;5018648;28;20032;-83
2022/06/02 00:19:27;;;;;;;5.95;4.80;;;14.20;95.50;;;;;;5035652;28;20464;-83
2022/06/02 00:22:03;;;;;;;7.22;4.90;;;14.10;95.40;;;;;;5035627;28;20467;-83
2022/06/02 00:25:05;;;;;;;7.80;4.70;;;14.10;95.40;;;;;;5017003;28;20478;-83
2022/06/02 00:27:35;;;;;;;6.68;4.50;;;14.00;95.40;;;;;;4987355;28;20036;-83
2022/06/02 00:30:35;;;;;;;9.00;5.25;;;14.00;95.50;;;;;;5017957;28;20493;-83
2022/06/02 00:33:15;;;;;;;7.17;5.17;;;14.00;95.50;;;;;;5001050;28;20034;-83
2022/06/02 00:35:56;;;;;;;8.85;4.95;;;13.90;95.60;;;;;;5035862;28;20295;-83
2022/06/02 00:41:49;;;;;;;7.05;5.40;;;13.80;95.70;;;;;;5034612;28;20056;-81
2022/06/02 00:44:40;;;;;;;6.25;5.43;;;13.80;95.80;;;;;;5035497;28;20026;-83
2022/06/02 00:47:28;;;;;;;9.35;5.15;;;13.80;95.80;;;;;;5017604;28;20030;-83
2022/06/02 00:50:08;;;;;;;5.82;5.15;;;13.70;95.90;;;;;;5013258;28;20042;-82
2022/06/02 00:53:22;;;;;;;6.65;5.32;;;13.70;96.00;;;;;;5024188;28;20030;-82
2022/06/02 00:58:59;;;;;;;5.75;4.63;;;13.50;96.00;;;;;;5035527;28;20048;-82
2022/06/02 01:01:29;;;;;;;6.18;5.22;;;13.50;96.10;;;;;;5005516;28;20034;-83
2022/06/02 01:03:57;;;;;;;7.90;5.50;;;13.50;96.10;;;;;;5034093;28;20022;-82
2022/06/02 01:06:45;;;;;;;9.30;5.90;;;13.40;96.10;;;;;;5035167;28;20029;-83
2022/06/02 01:09:52;;;;;;;7.25;5.40;;;13.40;96.20;;;;;;5017518;28;20117;-82
2022/06/02 01:12:55;;;;;;;8.90;5.65;;;13.30;96.20;;;;;;5033918;28;20033;-82
2022/06/02 01:15:34;;;;;;;9.68;6.13;;;13.30;96.40;;;;;;5016956;28;20025;-82
2022/06/02 01:18:12;;;;;;;7.15;5.38;;;13.20;96.30;;;;;;5035080;28;20100;-83
2022/06/02 01:21:08;;;;;;;6.80;5.60;;;13.10;96.30;;;;;;5035925;28;20056;-83
2022/06/02 01:24:12;;;;;;;8.52;5.65;;;13.00;96.50;;;;;;5018347;28;20487;-83
2022/06/02 01:27:10;;;;;;;9.43;6.80;;;13.00;96.80;;;;;;5020080;28;20076;-83
2022/06/02 01:30:10;;;;;;;6.95;5.80;;;12.90;97.20;;;;;;5035878;28;20109;-83
2022/06/02 01:33:05;;;;;;;8.20;6.30;;;12.90;97.50;;;;;;5034478;28;20030;-83
2022/06/02 01:35:53;;;;;;;7.95;6.18;;;12.90;97.80;;;;;;5034598;28;20025;-83
2022/06/02 01:38:29;;;;;;;8.95;6.50;;;12.90;98.00;;;;;;5017227;28;20445;-83
2022/06/02 01:41:10;;;;;;;9.30;6.50;;;12.90;98.00;;;;;;5034541;28;20029;-83
2022/06/02 01:44:10;;;;;;;7.13;6.28;;;12.80;98.00;;;;;;5034624;28;20105;-83
2022/06/02 01:47:13;;;;;;;7.80;6.17;;;12.90;98.10;;;;;;4989980;28;20037;-83
2022/06/02 01:50:12;;;;;;;9.35;6.60;;;12.80;98.00;;;;;;5016542;28;20322;-83
2022/06/02 01:53:12;;;;;;;7.35;5.97;;;12.80;97.90;;;;;;5016347;28;20025;-83
2022/06/02 01:56:00;;;;;;;8.05;6.55;;;12.80;97.90;;;;;;5005682;28;20021;-83
2022/06/02 01:58:55;;;;;;;9.80;7.78;;;12.70;97.90;;;;;;5016562;28;20049;-83
2022/06/02 02:01:33;;;;;;;9.90;7.03;;;12.70;97.90;;;;;;5007523;28;20447;-83
2022/06/02 02:04:29;;;;;;;9.80;6.95;;;12.70;97.90;;;;;;5034285;28;20409;-83
2022/06/02 02:07:06;;;;;;;9.38;6.45;;;12.70;98.00;;;;;;5016292;28;20032;-82
2022/06/02 02:09:41;;;;;;;7.60;5.05;;;12.70;98.10;;;;;;5034094;28;20079;-83
2022/06/02 02:12:17;;;;;;;7.07;5.95;;;12.60;98.00;;;;;;5015983;28;20391;-83
2022/06/02 02:15:12;;;;;;;7.32;5.90;;;12.60;98.10;;;;;;5034341;28;20017;-83
2022/06/02 02:17:54;;;;;;;7.38;6.50;;;12.60;98.20;;;;;;5016262;28;20032;-83
2022/06/02 02:20:43;;;;;;;9.05;7.13;;;12.50;98.30;;;;;;5033704;28;20475;-83
2022/06/02 02:23:33;;;;;;;9.00;6.95;;;12.50;98.30;;;;;;5022990;28;20029;-83
2022/06/02 02:26:30;;;;;;;10.57;8.07;;;12.50;98.30;;;;;;5034186;28;20018;-83
2022/06/02 02:29:12;;;;;;;9.88;7.70;;;12.40;98.30;;;;;;5010124;28;20022;-83
2022/06/02 02:32:02;;;;;;;11.45;8.20;;;12.40;98.50;;;;;;5015929;28;20030;-83
2022/06/02 02:34:46;;;;;;;9.95;7.78;;;12.40;98.60;;;;;;5031581;28;20535;-83
2022/06/02 02:37:37;;;;;;;9.98;8.35;;;12.40;98.70;;;;;;5015355;28;20029;-83
2022/06/02 02:40:32;;;;;;;9.30;7.97;;;12.40;98.80;;;;;;5033547;28;20464;-83
2022/06/02 02:43:04;;;;;;;11.07;8.38;;;12.30;98.90;;;;;;5012492;28;20025;-83
2022/06/02 02:45:55;;;;;;;10.85;8.82;;;12.30;98.80;;;;;;5015635;28;20024;-83
2022/06/02 02:48:33;;;;;;;10.88;8.00;;;12.20;98.80;;;;;;5032773;28;20053;-83
2022/06/02 02:51:09;;;;;;;12.65;9.40;;;12.30;98.90;;;;;;5033171;28;20499;-83
2022/06/02 02:53:43;;;;;;;11.23;8.85;;;12.20;98.90;;;;;;5015629;28;20021;-83
2022/06/02 02:56:17;;;;;;;10.70;8.18;;;12.20;98.80;;;;;;5015410;28;20061;-83
2022/06/02 02:59:12;;;;;;;13.90;9.73;;;12.20;98.90;;;;;;5033444;28;20053;-83
2022/06/02 03:02:06;;;;;;;11.95;9.38;;;12.20;99.00;;;;;;5015359;28;20025;-83
2022/06/02 03:04:58;;;;;;;9.52;7.88;;;12.10;99.00;;;;;;4997850;28;20194;-83
2022/06/02 03:07:25;;;;;;;8.00;6.65;;;12.10;99.10;;;;;;5032879;28;20021;-83
2022/06/02 03:10:26;;;;;;;9.48;6.78;;;12.10;99.10;;;;;;4998972;28;20018;-83
2022/06/02 03:12:55;;;;;;;10.55;8.20;;;12.00;99.10;;;;;;5015504;28;20168;-83
2022/06/02 03:15:34;;;;;;;9.73;8.18;;;12.00;99.00;;;;;;5026142;28;20030;-83
2022/06/02 03:18:47;;;;;;;10.57;9.02;;;12.00;99.00;;;;;;5014265;28;20088;-83
2022/06/02 03:21:18;;;;;;;10.13;8.73;;;11.90;99.00;;;;;;5001931;28;20034;-83
2022/06/02 03:24:29;;;;;;;10.25;8.88;;;11.90;99.00;;;;;;5019721;28;20057;-83
2022/06/02 03:27:12;;;;;;;10.00;7.57;;;11.90;99.10;;;;;;4929694;28;20027;-83
2022/06/02 03:29:43;;;;;;;10.40;8.20;;;11.80;99.20;;;;;;5015438;28;20533;-83
2022/06/02 03:32:34;;;;;;;9.82;8.48;;;11.80;99.30;;;;;;5016972;28;20466;-82
2022/06/02 03:35:02;;;;;;;10.27;9.15;;;11.80;99.30;;;;;;5017009;28;20065;-83
2022/06/02 03:37:52;;;;;;;10.75;9.20;;;11.70;99.40;;;;;;5021382;28;20036;-83
2022/06/02 03:40:35;;;;;;;10.30;7.78;;;11.70;99.50;;;;;;5001495;28;20438;-82
2022/06/02 03:43:07;;;;;;;9.32;8.30;;;11.70;99.60;;;;;;5031408;28;20028;-83
2022/06/02 03:45:41;;;;;;;12.52;9.70;;;11.70;99.80;;;;;;5015110;28;20104;-83
2022/06/02 03:48:46;;;;;;;13.13;11.02;;;11.70;99.80;;;;;;5015314;28;20078;-83
2022/06/02 03:51:39;;;;;;;17.45;10.82;;;11.70;99.90;;;;;;5014836;28;20044;-83
2022/06/02 03:54:07;;;;;;;21.38;10.85;;;11.70;99.90;;;;;;5015377;28;20068;-82
2022/06/02 03:56:44;;;;;;;19.92;10.73;;;11.70;99.90;;;;;;5015205;28;20434;-82
2022/06/02 03:59:30;;;;;;;20.20;11.48;;;11.60;99.90;;;;;;5032889;28;20088;-83
2022/06/02 04:02:06;;;;;;;16.98;10.55;;;11.60;99.90;;;;;;5036434;28;20095;-82
2022/06/02 04:04:41;;;;;;;16.95;10.35;;;11.60;99.90;;;;;;5018405;28;20017;-82
2022/06/02 04:07:15;;;;;;;15.23;10.82;;;11.60;99.90;;;;;;5018547;28;20120;-82
2022/06/02 04:10:07;;;;;;;15.68;9.60;;;11.60;99.90;;;;;;5018546;28;20014;-82
2022/06/02 04:15:52;;;;;;;12.20;10.18;;;11.50;99.90;;;;;;5023212;28;20479;-82
2022/06/02 04:18:34;;;;;;;12.85;9.45;;;11.40;99.90;;;;;;5022818;28;20418;-83
2022/06/02 04:21:05;;;;;;;12.88;9.77;;;11.40;99.90;;;;;;5036440;28;20026;-83
2022/06/02 04:23:48;;;;;;;12.55;9.75;;;11.30;99.90;;;;;;5018335;28;20037;-82
2022/06/02 04:26:35;;;;;;;12.05;10.10;;;11.30;99.90;;;;;;5018544;28;20067;-82
2022/06/02 04:29:44;;;;;;;11.27;9.57;;;11.30;99.90;;;;;;5018447;28;20022;-82
2022/06/02 04:32:30;;;;;;;11.73;10.13;;;11.30;99.90;;;;;;4981594;28;20034;-82
2022/06/02 04:34:56;;;;;;;12.80;10.93;;;11.40;99.90;;;;;;5017943;28;20033;-83
2022/06/02 04:37:24;;;;;;;14.32;12.30;;;11.40;99.90;;;;;;5018228;28;20032;-83
2022/06/02 04:39:58;;;;;;;13.60;11.00;;;11.40;99.90;;;;;;5036839;28;20034;-82
2022/06/02 04:42:29;;;;;;;13.55;11.18;;;11.30;99.90;;;;;;5001362;28;20046;-82
2022/06/02 04:45:25;;;;;;;16.45;11.25;;;11.30;99.90;;;;;;5031906;28;20048;-82
2022/06/02 04:48:09;;;;;;;13.38;10.88;;;11.30;99.90;;;;;;4947885;28;20126;-82
2022/06/02 04:51:13;;;;;;;14.07;11.63;;;11.40;99.90;;;;;;5017548;28;20081;-82
2022/06/02 04:54:01;;;;;;;15.35;12.45;;;11.40;99.90;;;;;;5022506;28;20467;-82
2022/06/02 04:56:46;;;;;;;14.38;12.18;;;11.40;99.90;;;;;;5006241;28;20451;-82
2022/06/02 04:59:33;;;;;;;15.10;12.82;;;11.40;99.90;;;;;;5018143;28;20030;-82
2022/06/02 05:02:16;;;;;;;17.02;13.02;;;11.50;99.90;;;;;;5035088;28;20041;-82
2022/06/02 05:05:05;;;;;;;13.82;12.32;;;11.50;99.90;;;;;;5017194;28;20540;-82
2022/06/02 05:07:52;;;;;;;18.00;13.70;;;11.60;99.90;;;;;;4999435;28;20038;-82
2022/06/02 05:10:31;;;;;;;16.02;14.10;;;11.60;99.90;;;;;;5016876;28;20017;-82
2022/06/02 05:13:27;;;;;;;16.65;13.23;;;11.60;99.90;;;;;;5017225;28;20053;-82
2022/06/02 05:15:56;;;;;;;16.90;13.93;;;11.70;99.90;;;;;;5034567;28;20498;-82
2022/06/02 05:18:33;;;;;;;16.70;14.25;;;11.70;99.90;;;;;;5022439;28;20025;-82
2022/06/02 05:21:31;;;;;;;18.40;15.38;;;11.80;99.90;;;;;;5035165;28;20040;-81
2022/06/02 05:23:58;;;;;;;16.25;14.48;;;11.80;99.90;;;;;;5020005;28;20053;-82
2022/06/02 05:26:57;;;;;;;17.90;15.30;;;11.90;99.90;;;;;;5020170;28;20555;-82
2022/06/02 05:29:44;;;;;;;19.40;15.75;;;11.90;99.90;;;;;;5023624;28;20037;-82
2022/06/02 05:32:36;;;;;;;17.40;15.20;;;11.90;99.90;;;;;;5006014;28;20029;-82
2022/06/02 05:35:12;;;;;;;19.02;15.07;;;11.90;99.90;;;;;;4986935;28;20482;-82
2022/06/02 05:37:46;;;;;;;19.17;16.73;;;11.90;99.90;;;;;;5015952;28;20034;-82
2022/06/02 05:40:25;;;;;;;18.15;16.25;;;12.00;99.90;;;;;;5016149;28;20026;-82
2022/06/02 05:42:56;;;;;;;20.08;16.52;;;12.00;99.90;;;;;;5016634;28;20486;-82
2022/06/02 05:45:40;;;;;;;19.75;16.65;;;12.00;99.90;;;;;;5016908;28;20104;-82
2022/06/02 05:48:27;;;;;;;19.05;15.90;;;12.10;99.90;;;;;;5016593;28;20033;-82
2022/06/02 05:51:08;;;;;;;19.23;16.63;;;12.10;99.90;;;;;;5006202;28;20085;-82
2022/06/02 05:53:58;;;;;;;19.33;16.02;;;12.10;99.90;;;;;;4997016;28;20053;-82
2022/06/02 05:56:33;;;;;;;17.52;15.55;;;12.20;99.90;;;;;;4996945;28;20030;-82
2022/06/02 05:59:44;;;;;;;16.92;15.13;;;12.20;99.90;;;;;;4996751;28;20518;-82
2022/06/02 06:02:38;;;;;;;18.52;16.02;;;12.20;99.90;;;;;;4994310;28;20038;-82
2022/06/02 06:05:09;;;;;;;20.65;16.17;;;12.30;99.90;;;;;;5003175;28;20431;-82
2022/06/02 06:07:54;;;;;;;18.67;15.75;;;12.30;99.90;;;;;;4996115;28;20490;-81
2022/06/02 06:10:45;;;;;;;24.15;17.38;;;12.40;99.90;;;;;;5015030;28;20037;-82
2022/06/02 06:13:32;;;;;;;24.63;17.57;;;12.40;99.90;;;;;;4983715;28;20085;-82
2022/06/02 06:16:07;;;;;;;24.25;16.73;;;12.50;99.90;;;;;;5013943;28;20109;-82
2022/06/02 06:18:50;;;;;;;20.55;15.50;;;12.50;99.90;;;;;;5012930;28;20026;-82
2022/06/02 06:21:57;;;;;;;17.02;14.27;;;12.50;99.90;;;;;;4996404;28;20216;-82
2022/06/02 06:24:28;;;;;;;15.70;13.90;;;12.60;99.90;;;;;;4969694;28;20091;-82
2022/06/02 06:26:57;;;;;;;16.50;13.63;;;12.70;99.90;;;;;;4995976;28;20108;-82
2022/06/02 06:29:43;;;;;;;16.85;14.32;;;12.80;99.90;;;;;;4997482;28;20026;-82
2022/06/02 06:32:46;;;;;;;17.52;14.52;;;12.80;99.90;;;;;;5011486;28;20113;-82
2022/06/02 06:35:35;;;;;;;14.77;13.15;;;12.90;99.90;;;;;;5012772;28;20030;-82
2022/06/02 06:38:01;;;;;;;15.77;12.93;;;12.90;99.90;;;;;;5015517;28;20108;-82
2022/06/02 06:40:39;;;;;;;15.30;13.15;;;13.00;99.90;;;;;;4997394;28;20120;-82
2022/06/02 06:43:30;;;;;;;13.85;11.35;;;13.10;99.90;;;;;;4994912;28;20042;-82
2022/06/02 06:46:14;;;;;;;12.30;10.43;;;13.10;99.90;;;;;;4980137;28;20404;-82
2022/06/02 06:48:49;;;;;;;11.07;9.93;;;13.20;99.90;;;;;;5002522;28;20030;-82
2022/06/02 06:51:31;;;;;;;11.65;9.98;;;13.30;99.90;;;;;;5014211;28;20092;-82
2022/06/02 06:54:19;;;;;;;10.90;8.40;;;13.40;99.90;;;;;;5033142;28;20091;-82
2022/06/02 06:56:49;;;;;;;10.82;9.10;;;13.40;99.90;;;;;;5025550;28;20450;-82
2022/06/02 06:59:27;;;;;;;12.38;8.77;;;13.50;99.90;;;;;;5035460;28;20018;-82
2022/06/02 07:02:23;;;;;;;12.07;9.80;;;13.60;99.90;;;;;;5032767;28;20387;-82
2022/06/02 07:05:13;;;;;;;10.05;8.88;;;13.70;99.90;;;;;;5029647;28;20025;-82
2022/06/02 07:08:09;;;;;;;11.00;8.75;;;13.80;99.90;;;;;;5013926;28;20022;-82
2022/06/02 07:10:49;;;;;;;12.02;7.95;;;13.90;99.90;;;;;;5012726;28;20048;-82
2022/06/02 07:13:30;;;;;;;10.88;7.15;;;14.00;99.90;;;;;;5032711;28;20100;-82
2022/06/02 07:16:03;;;;;;;7.70;6.90;;;14.10;99.90;;;;;;5015237;28;20474;-82
2022/06/02 07:18:47;;;;;;;8.60;6.82;;;14.20;99.90;;;;;;5015321;28;20025;-82
2022/06/02 07:21:39;;;;;;;9.45;6.47;;;14.20;99.90;;;;;;5016758;28;20029;-81
2022/06/02 07:24:08;;;;;;;9.68;6.93;;;14.30;99.90;;;;;;5016830;28;20411;-82
2022/06/02 07:26:57;;;;;;;8.73;6.85;;;14.40;99.90;;;;;;5015288;28;20430;-82
2022/06/02 07:30:07;;;;;;;7.78;6.25;;;14.50;99.90;;;;;;5032782;28;20021;-82
2022/06/02 07:33:03;;;;;;;8.15;6.38;;;14.60;99.90;;;;;;5017013;28;20425;-82
2022/06/02 07:35:34;;;;;;;7.53;5.80;;;14.60;99.90;;;;;;5013424;28;20157;-82
2022/06/02 07:38:31;;;;;;;6.82;5.28;;;14.70;99.90;;;;;;5036832;28;20033;-82
2022/06/02 07:41:16;;;;;;;7.28;5.28;;;14.80;99.90;;;;;;5006339;28;20493;-82
2022/06/02 07:43:51;;;;;;;7.78;6.00;;;14.90;99.90;;;;;;5036652;28;20040;-82
2022/06/02 07:46:25;;;;;;;6.85;5.85;;;15.00;99.90;;;;;;5036976;28;20151;-82
2022/06/02 07:49:00;;;;;;;7.60;5.45;;;15.10;99.90;;;;;;5018889;28;20100;-82
2022/06/02 07:51:45;;;;;;;7.47;5.30;;;15.20;99.90;;;;;;5018760;28;20505;-82
2022/06/02 07:54:44;;;;;;;10.20;5.63;;;15.30;99.90;;;;;;5036117;28;20578;-82
2022/06/02 07:57:32;;;;;;;5.70;4.88;;;15.40;99.90;;;;;;5017917;28;20076;-82
2022/06/02 08:00:20;;;;;;;6.72;4.30;;;15.50;99.90;;;;;;5008031;28;20025;-82
2022/06/02 08:03:14;;;;;;;6.10;4.53;;;15.70;99.90;;;;;;5031305;28;20095;-82
2022/06/02 08:06:02;;;;;;;6.50;4.03;;;15.70;99.90;;;;;;5018188;28;20018;-82
2022/06/02 08:08:54;;;;;;;5.78;4.05;;;15.90;99.90;;;;;;5012213;28;20079;-82
2022/06/02 08:11:39;;;;;;;5.60;3.65;;;16.00;99.90;;;;;;5019577;28;20017;-82
2022/06/02 08:14:42;;;;;;;5.57;3.17;;;16.10;99.90;;;;;;5019159;28;20095;-82
2022/06/02 08:17:33;;;;;;;4.72;2.65;;;16.20;99.90;;;;;;5018309;28;20029;-82
2022/06/02 08:20:14;;;;;;;5.00;2.60;;;16.30;99.90;;;;;;5036694;28;20040;-82
2022/06/02 08:23:23;;;;;;;5.47;2.88;;;16.40;99.90;;;;;;5019132;28;20033;-82
2022/06/02 08:26:09;;;;;;;5.28;2.20;;;16.40;99.90;;;;;;5011916;28;20040;-83
2022/06/02 08:29:07;;;;;;;2.67;2.20;;;16.50;99.80;;;;;;5005787;28;20030;-82
2022/06/02 08:32:07;;;;;;;6.47;2.30;;;16.60;99.10;;;;;;5018608;28;20485;-82
2022/06/02 08:34:42;;;;;;;3.53;2.15;;;16.70;95.80;;;;;;5018459;28;20021;-82
2022/06/02 08:37:20;;;;;;;5.63;2.67;;;16.70;96.40;;;;;;5016626;28;20079;-83
2022/06/02 08:40:13;;;;;;;3.97;2.80;;;16.70;96.50;;;;;;5015909;28;20029;-82
2022/06/02 08:42:49;;;;;;;3.08;2.35;;;16.80;96.70;;;;;;5003094;28;20057;-82
2022/06/02 08:45:37;;;;;;;3.85;2.33;;;16.80;96.40;;;;;;5034429;28;20104;-82
2022/06/02 08:48:21;;;;;;;4.97;2.10;;;16.90;96.30;;;;;;5025083;28;20030;-82
2022/06/02 08:51:18;;;;;;;4.10;2.20;;;17.00;96.40;;;;;;5026702;28;20056;-81
2022/06/02 08:54:11;;;;;;;3.75;2.05;;;17.10;96.60;;;;;;5027366;28;20079;-81
2022/06/02 08:56:55;;;;;;;2.72;1.90;;;17.20;96.70;;;;;;5023512;28;20382;-81
2022/06/02 08:59:49;;;;;;;5.72;2.05;;;17.30;96.40;;;;;;5013651;28;20017;-81
2022/06/02 09:02:22;;;;;;;3.53;2.30;;;17.40;95.90;;;;;;5034651;28;20379;-81
2022/06/02 09:04:57;;;;;;;6.13;2.72;;;17.50;95.50;;;;;;5017632;28;20386;-81
2022/06/02 09:07:32;;;;;;;6.43;3.00;;;17.60;94.70;;;;;;5031459;28;20022;-81
2022/06/02 09:10:15;;;;;;;3.50;2.40;;;17.70;94.00;;;;;;5027003;28;20044;-82
2022/06/02 09:12:55;;;;;;;7.18;2.85;;;17.80;93.40;;;;;;5029155;28;20088;-82
2022/06/02 09:15:58;;;;;;;5.75;2.40;;;17.80;92.30;;;;;;5033356;28;20091;-82
2022/06/02 09:18:52;;;;;;;3.97;2.28;;;17.80;91.20;;;;;;5029743;28;20428;-82
2022/06/02 09:21:25;;;;;;;5.13;2.40;;;17.90;91.00;;;;;;5016225;28;20025;-86
2022/06/02 09:24:05;;;;;;;4.90;2.63;;;17.90;91.10;;;;;;5032094;28;20029;-86
2022/06/02 09:27:08;;;;;;;4.88;2.58;;;18.00;91.30;;;;;;5031988;28;20017;-86
2022/06/02 09:30:03;;;;;;;4.07;2.17;;;18.10;90.60;;;;;;5015434;28;20021;-83
2022/06/02 09:32:54;;;;;;;3.50;2.30;;;18.10;90.60;;;;;;5003966;28;20437;-82
2022/06/02 09:35:33;;;;;;;6.80;2.30;;;18.20;90.50;;;;;;5019745;28;20021;-83
2022/06/02 09:38:23;;;;;;;4.25;2.40;;;18.20;89.00;;;;;;5016428;28;20120;-82
2022/06/02 09:41:20;;;;;;;4.55;2.17;;;18.30;87.80;;;;;;5016623;28;20048;-82
2022/06/02 09:44:20;;;;;;;2.28;1.73;;;18.40;87.90;;;;;;5016525;28;20021;-82
2022/06/02 09:47:01;;;;;;;3.80;1.83;;;18.40;87.60;;;;;;5016758;28;20030;-82
2022/06/02 09:49:46;;;;;;;4.38;2.10;;;18.50;87.70;;;;;;5003813;28;20037;-82
2022/06/02 09:52:52;;;;;;;2.85;1.65;;;18.60;87.30;;;;;;5033443;28;20065;-82
2022/06/02 09:55:34;;;;;;;4.32;2.00;;;18.60;86.50;;;;;;5022685;28;20591;-80
2022/06/02 09:58:21;;;;;;;2.90;1.95;;;18.70;85.20;;;;;;5015490;28;20030;-81
2022/06/02 10:01:16;;;;;;;3.25;1.80;;;18.80;85.60;;;;;;5014672;28;20033;-80
2022/06/02 10:03:56;;;;;;;2.35;1.80;;;18.90;86.20;;;;;;5011815;28;20386;-83
2022/06/02 10:06:40;;;;;;;4.28;2.15;;;19.00;86.50;;;;;;5030646;22;20054;-86
2022/06/02 10:09:15;;;;;;;13.52;1.92;;;19.00;86.80;;;;;;4999591;28;20026;-88
2022/06/02 10:15:30;;;;;;;3.17;2.03;;;19.20;86.20;;;;;;5019821;28;20040;-83
2022/06/02 10:18:11;;;;;;;3.88;1.67;;;19.20;84.00;;;;;;4999707;28;20165;-84
2022/06/02 10:21:04;;;;;;;1.63;1.50;;;19.30;83.40;;;;;;5009863;28;20025;-83
2022/06/02 10:24:11;;;;;;;2.13;1.75;;;19.30;84.30;;;;;;4995048;28;20072;-84
2022/06/02 10:27:25;;;;;;;2.20;1.70;;;19.40;85.20;;;;;;5007596;28;20028;-89
2022/06/02 10:30:03;;;;;;;4.55;2.30;;;19.50;85.40;;;;;;4989280;28;20028;-88
2022/06/02 10:32:54;;;;;;;7.22;2.40;;;19.50;83.80;;;;;;4987705;28;20044;-90
2022/06/02 10:35:20;;;;;;;3.95;2.10;;;19.50;82.60;;;;;;5013993;28;20030;-91
2022/06/02 10:38:21;;;;;;;2.75;1.60;;;19.60;80.60;;;;;;4997082;28;20026;-95
2022/06/02 10:41:29;;;;;;;1.95;1.35;;;19.60;81.40;;;;;;5021750;28;20022;-91
2022/06/02 10:44:04;;;;;;;2.60;1.10;;;19.60;82.00;;;;;;5025164;28;20033;-89
2022/06/02 10:47:01;;;;;;;3.25;1.52;;;19.70;82.40;;;;;;4995467;28;20458;-91
2022/06/02 10:49:40;;;;;;;1.77;1.20;;;19.80;82.40;;;;;;4999750;28;20033;-93
2022/06/02 10:52:33;;;;;;;3.28;1.10;;;19.90;82.00;;;;;;4998829;28;20030;-91
2022/06/02 10:55:21;;;;;;;1.85;1.17;;;20.00;81.90;;;;;;4996317;28;20029;-90
2022/06/02 10:58:35;;;;;;;1.50;0.95;;;20.00;80.90;;;;;;5007654;28;20033;-92
2022/06/02 11:01:39;;;;;;;1.60;1.25;;;20.10;80.30;;;;;;5007290;28;20018;-92
2022/06/02 11:04:19;;;;;;;1.83;1.10;;;20.20;80.10;;;;;;4989657;28;20038;-92
2022/06/02 11:07:22;;;;;;;1.60;1.08;;;20.30;80.00;;;;;;4996655;28;20144;-93
2022/06/02 11:10:22;;;;;;;3.72;1.40;;;20.30;79.60;;;;;;5001873;28;20018;-87
2022/06/02 11:12:59;;;;;;;2.25;1.48;;;20.40;78.90;;;;;;5020736;28;20030;-88
2022/06/02 11:16:03;;;;;;;3.10;1.30;;;20.40;78.10;;;;;;5018380;28;20033;-88
2022/06/02 11:18:51;;;;;;;2.72;1.55;;;20.50;77.20;;;;;;5016225;28;20030;-88
2022/06/02 11:21:32;;;;;;;4.97;1.70;;;20.50;77.30;;;;;;5019292;28;20026;-88
2022/06/02 11:24:31;;;;;;;2.75;1.30;;;20.50;77.40;;;;;;5001538;28;20064;-87
2022/06/02 11:27:06;;;;;;;2.92;1.60;;;20.50;77.20;;;;;;5000442;28;20032;-87
2022/06/02 11:30:09;;;;;;;3.15;1.60;;;20.60;75.00;;;;;;5009424;28;20026;-88
2022/06/02 11:32:44;;;;;;;2.55;1.45;;;20.60;73.10;;;;;;5002277;28;20026;-88
2022/06/02 11:35:28;;;;;;;1.60;1.40;;;20.60;72.90;;;;;;5000743;28;20033;-87
2022/06/02 11:38:09;;;;;;;2.10;1.20;;;20.60;72.80;;;;;;5007871;28;20034;-88
2022/06/02 11:41:18;;;;;;;2.35;1.20;;;20.70;72.10;;;;;;5001979;28;20049;-87
2022/06/02 11:44:07;;;;;;;3.15;1.40;;;20.70;71.10;;;;;;4989393;28;20405;-87
2022/06/02 11:47:13;;;;;;;2.85;1.15;;;20.70;71.80;;;;;;5002484;28;20026;-87
2022/06/02 11:50:00;;;;;;;2.85;1.15;;;20.80;71.80;;;;;;4990874;28;20350;-88
2022/06/02 11:52:40;;;;;;;2.30;1.20;;;20.90;71.80;;;;;;5002171;28;20447;-87
2022/06/02 11:55:21;;;;;;;2.33;1.23;;;20.90;71.60;;;;;;5001715;28;20022;-88
2022/06/02 11:58:11;;;;;;;1.73;1.10;;;21.00;72.00;;;;;;5001918;28;20466;-87
2022/06/02 12:01:13;;;;;;;3.30;1.20;;;21.00;71.80;;;;;;5001736;28;20018;-87
2022/06/02 12:03:56;;;;;;;3.22;1.30;;;21.10;71.60;;;;;;4923248;29;20062;-88
2022/06/02 12:06:52;;;;;;;5.93;1.45;;;21.10;71.70;;;;;;5012606;28;20486;-88
2022/06/02 12:09:21;;;;;;;3.90;1.40;;;21.10;70.00;;;;;;4998223;28;20037;-87
2022/06/02 12:11:52;;;;;;;2.42;1.40;;;21.10;68.60;;;;;;5006397;28;20033;-88
2022/06/02 12:14:29;;;;;;;;;;;21.10;67.10;;;;;;5002678;28;20053;-89
2022/06/02 12:17:41;;;;;;;2.28;1.55;;;21.10;67.20;;;;;;5003605;28;19914;-88
2022/06/02 12:20:26;;;;;;;2.70;1.67;;;21.10;67.80;;;;;;5019065;28;20030;-87
2022/06/02 12:23:00;;;;;;;2.20;1.10;;;21.20;68.30;;;;;;4991254;28;20117;-88
2022/06/02 12:25:54;;;;;;;2.72;1.30;;;21.20;68.80;;;;;;5007335;28;20036;-88
2022/06/02 12:28:33;;;;;;;2.05;1.10;;;21.30;69.40;;;;;;5010193;28;20173;-88
2022/06/02 12:31:05;;;;;;;3.38;1.67;;;21.40;67.60;;;;;;4992886;28;20069;-88
2022/06/02 12:34:15;;;;;;;2.78;1.40;;;21.50;65.90;;;;;;4990845;28;20027;-88
2022/06/02 12:37:00;;;;;;;2.30;1.40;;;21.50;65.30;;;;;;4981695;28;20469;-88
2022/06/02 12:39:37;;;;;;;1.63;1.13;;;21.50;64.10;;;;;;4996657;28;20022;-88
2022/06/02 12:42:27;;;;;;;2.72;1.50;;;21.60;63.60;;;;;;4995426;28;20085;-88
2022/06/02 12:44:55;;;;;;;2.85;1.48;;;21.60;63.10;;;;;;4996375;28;20501;-87
2022/06/02 12:47:42;;;;;;;2.42;1.50;;;21.60;62.60;;;;;;5016152;28;20050;-86
2022/06/02 12:50:36;;;;;;;3.05;1.55;;;21.70;62.70;;;;;;5015880;28;20030;-88
2022/06/02 12:53:19;;;;;;;1.85;1.40;;;21.80;62.30;;;;;;4984164;28;20072;-88
2022/06/02 12:55:50;;;;;;;3.13;1.60;;;21.80;62.70;;;;;;4994868;28;20113;-88
2022/06/02 12:58:49;;;;;;;3.83;1.80;;;21.80;62.10;;;;;;4997175;28;20037;-88
2022/06/02 13:01:41;;;;;;;3.30;1.40;;;21.90;61.70;;;;;;4996460;28;20022;-88
2022/06/02 13:04:19;;;;;;;2.53;1.27;;;22.00;61.90;;;;;;4995189;28;20050;-88
2022/06/02 13:06:53;;;;;;;2.35;1.30;;;22.00;61.50;;;;;;4997082;28;20137;-88
2022/06/02 13:09:32;;;;;;;2.78;1.50;;;22.10;60.00;;;;;;4997388;28;20030;-88
2022/06/02 13:12:35;;;;;;;2.35;1.30;;;22.10;60.20;;;;;;4994214;28;20022;-88
2022/06/02 13:15:38;;;;;;;7.13;1.30;;;22.10;61.00;;;;;;5010500;28;20025;-87
2022/06/02 13:18:44;;;;;;;2.70;1.20;;;22.20;62.50;;;;;;4997412;28;20084;-87
2022/06/02 13:21:47;;;;;;;2.25;1.50;;;22.40;62.40;;;;;;4988692;28;20056;-88
2022/06/02 13:24:22;;;;;;;4.03;1.65;;;22.40;60.90;;;;;;4985253;28;20037;-88
2022/06/02 13:27:15;;;;;;;1.98;1.33;;;22.50;60.20;;;;;;4997447;28;20026;-87
2022/06/02 13:29:59;;;;;;;3.72;1.80;;;22.50;60.80;;;;;;4997926;28;20113;-88
2022/06/02 13:32:40;;;;;;;2.00;1.33;;;22.60;59.80;;;;;;4988334;28;20092;-87
2022/06/02 13:35:35;;;;;;;1.50;1.30;;;22.60;60.20;;;;;;5011944;28;20022;-87
2022/06/02 13:38:19;;;;;;;3.08;1.60;;;22.60;60.30;;;;;;4997395;28;20032;-87
2022/06/02 13:41:07;;;;;;;3.97;1.50;;;22.80;59.90;;;;;;4997098;28;20022;-87
2022/06/02 13:43:50;;;;;;;2.03;1.45;;;22.80;59.10;;;;;;4996843;28;20030;-87
2022/06/02 13:46:39;;;;;;;2.80;1.40;;;22.80;58.70;;;;;;4997615;28;20417;-87
2022/06/02 13:49:33;;;;;;;3.50;1.50;;;22.80;57.90;;;;;;4997045;28;20029;-88
2022/06/02 13:52:23;;;;;;;2.40;1.45;;;22.80;57.40;;;;;;5011906;28;20037;-87
2022/06/02 13:58:42;;;;;;;2.75;1.70;;;22.80;57.30;;;;;;5015129;28;20088;-88
2022/06/02 14:01:16;;;;;;;2.72;1.27;;;22.80;57.40;;;;;;4961970;28;20455;-87
2022/06/02 14:04:03;;;;;;;3.17;1.50;;;22.80;57.40;;;;;;4997462;28;20088;-87
2022/06/02 14:06:33;;;;;;;2.70;1.67;;;22.90;57.80;;;;;;4996491;28;20073;-87
2022/06/02 14:09:26;;;;;;;4.68;1.92;;;22.90;57.80;;;;;;5030780;28;20029;-88
2022/06/02 14:11:55;;;;;;;4.40;1.58;;;22.90;57.10;;;;;;5040560;28;20044;-87
2022/06/02 14:14:34;;;;;;;3.35;1.60;;;23.00;56.70;;;;;;5022654;28;20023;-87
2022/06/02 14:17:25;;;;;;;1.95;1.40;;;23.00;56.50;;;;;;5036392;28;20037;-87
2022/06/02 14:20:19;;;;;;;3.05;1.58;;;23.10;57.30;;;;;;5031248;28;20018;-87
2022/06/02 14:23:11;;;;;;;8.00;1.65;;;23.20;57.80;;;;;;5021016;28;20036;-87
2022/06/02 14:25:58;;;;;;;4.22;1.27;;;23.30;58.60;;;;;;5024497;28;20029;-88
2022/06/02 14:29:11;;;;;;;1.92;1.50;;;23.30;58.80;;;;;;5039911;28;20093;-87
2022/06/02 14:32:04;;;;;;;2.15;1.50;;;23.40;58.60;;;;;;5000974;28;20025;-86
2022/06/02 14:35:19;;;;;;;3.25;1.52;;;23.50;58.10;;;;;;5022608;28;20022;-87
2022/06/02 14:37:48;;;;;;;2.47;1.33;;;23.50;57.90;;;;;;5033253;28;20026;-87
2022/06/02 14:40:26;;;;;;;3.72;1.25;;;23.50;57.60;;;;;;5030938;28;20030;-87